Hatchet Mtn Atmospheric Data: 04/08/2021 Summary  Detailed Graphs  Station List

  Temperature     Wind Precipitation Visibility
Timestamp Air Wet
Bulb
Dew-
point
24-hr
Max
24-hr
Min
Relative
Humidity
Atmospheric
Pressure
Avg
Speed
Avg
Dir
Spot
Speed
Spot
Dir
Max
Speed
Max
Dir
  Rate Situation Start End 1 hr 3 hr 6 hr 12 hr 24 hr   Situation
Date Time °F °F °F °F °F % in Hg mph ° mph ° mph ° Y/N in/hr text Date Time Date Time in in in in in mi text
04/08/2021 12:00 AM 45.32 39.02 30.92 58.82 35.24 56.0 Not Reported 5.14 W 5.82 NW 6.93 W No 0.000 No Precipitation 03/22/2021 09:23 AM 03/22/2021 09:28 AM 0.000 0.000 0.000 0.000 0.000 Not Reported Not Reported
04/08/2021 12:05 AM 45.32 39.02 30.56 58.82 35.24 55.0 Not Reported 5.59 NW 3.80 W 6.49 W No 0.000 No Precipitation 03/22/2021 09:23 AM 03/22/2021 09:28 AM 0.000 0.000 0.000 0.000 0.000 Not Reported Not Reported
04/08/2021 12:10 AM 45.32 38.84 30.20 58.82 35.24 55.0 Not Reported 4.70 W 4.47 W 6.93 NW No 0.000 No Precipitation 03/22/2021 09:23 AM 03/22/2021 09:28 AM 0.000 0.000 0.000 0.000 0.000 Not Reported Not Reported
04/08/2021 12:15 AM 44.96 38.66 30.20 58.82 35.24 55.0 Not Reported 6.26 W 5.37 SW 7.38 W No 0.000 No Precipitation 03/22/2021 09:23 AM 03/22/2021 09:28 AM 0.000 0.000 0.000 0.000 0.000 Not Reported Not Reported
04/08/2021 12:20 AM 44.24 38.30 30.38 58.82 35.24 57.0 Not Reported 3.58 W 3.80 NW 7.38 W No 0.000 No Precipitation 03/22/2021 09:23 AM 03/22/2021 09:28 AM 0.000 0.000 0.000 0.000 0.000 Not Reported Not Reported
04/08/2021 12:25 AM 43.88 38.12 30.38 58.82 35.24 58.0 Not Reported 3.80 W 5.37 W 5.37 W No 0.000 No Precipitation 03/22/2021 09:23 AM 03/22/2021 09:28 AM 0.000 0.000 0.000 0.000 0.000 Not Reported Not Reported
04/08/2021 12:30 AM 43.52 37.94 30.20 58.82 35.24 58.0 Not Reported 4.25 W 3.58 W 5.82 W No 0.000 No Precipitation 03/22/2021 09:23 AM 03/22/2021 09:28 AM 0.000 0.000 0.000 0.000 0.000 Not Reported Not Reported
04/08/2021 12:35 AM 42.98 37.58 30.20 58.82 35.24 59.0 Not Reported 3.36 W 3.13 W 5.82 W No 0.000 No Precipitation 03/22/2021 09:23 AM 03/22/2021 09:28 AM 0.000 0.000 0.000 0.000 0.000 Not Reported Not Reported
04/08/2021 12:40 AM 42.26 37.22 30.02 58.82 35.24 60.0 Not Reported 2.91 W 3.58 W 4.70 W No 0.000 No Precipitation 03/22/2021 09:23 AM 03/22/2021 09:28 AM 0.000 0.000 0.000 0.000 0.000 Not Reported Not Reported
04/08/2021 12:50 AM 41.36 36.68 30.20 58.82 35.24 63.0 Not Reported 3.36 W 2.68 W 4.03 W No 0.000 No Precipitation 03/22/2021 09:23 AM 03/22/2021 09:28 AM 0.000 0.000 0.000 0.000 0.000 Not Reported Not Reported
04/08/2021 12:55 AM 41.36 36.68 30.02 58.82 35.24 63.0 Not Reported 3.58 W 3.58 W 4.47 W No 0.000 No Precipitation 03/22/2021 09:23 AM 03/22/2021 09:28 AM 0.000 0.000 0.000 0.000 0.000 Not Reported Not Reported
04/08/2021 01:00 AM 40.82 36.32 29.84 58.82 35.24 64.0 Not Reported 2.91 W 2.68 W 4.47 W No 0.000 No Precipitation 03/22/2021 09:23 AM 03/22/2021 09:28 AM 0.000 0.000 0.000 0.000 0.000 Not Reported Not Reported
04/08/2021 01:05 AM 40.28 36.14 30.38 58.82 35.24 66.0 Not Reported 2.46 W 2.46 W 3.36 W No 0.000 No Precipitation 03/22/2021 09:23 AM 03/22/2021 09:28 AM 0.000 0.000 0.000 0.000 0.000 Not Reported Not Reported
04/08/2021 01:10 AM 39.38 35.42 29.84 58.82 35.24 67.0 Not Reported 2.46 W 3.36 W 3.36 W No 0.000 No Precipitation 03/22/2021 09:23 AM 03/22/2021 09:28 AM 0.000 0.000 0.000 0.000 0.000 Not Reported Not Reported
04/08/2021 01:15 AM 39.20 35.42 30.20 58.82 35.24 69.0 Not Reported 2.46 W 2.91 NW 3.36 W No 0.000 No Precipitation 03/22/2021 09:23 AM 03/22/2021 09:28 AM 0.000 0.000 0.000 0.000 0.000 Not Reported Not Reported
04/08/2021 01:20 AM 38.66 35.24 30.20 58.82 35.24 70.0 Not Reported 2.68 W 2.68 W 3.36 W No 0.000 No Precipitation 03/22/2021 09:23 AM 03/22/2021 09:28 AM 0.000 0.000 0.000 0.000 0.000 Not Reported Not Reported
04/08/2021 01:30 AM 38.30 34.88 30.20 58.82 35.24 71.0 Not Reported 2.68 W 3.13 W 3.36 W No 0.000 No Precipitation 03/22/2021 09:23 AM 03/22/2021 09:28 AM 0.000 0.000 0.000 0.000 0.000 Not Reported Not Reported
04/08/2021 01:40 AM 37.40 34.52 30.38 58.82 35.24 74.0 Not Reported 2.46 W 2.01 W 3.80 W No 0.000 No Precipitation 03/22/2021 09:23 AM 03/22/2021 09:28 AM 0.000 0.000 0.000 0.000 0.000 Not Reported Not Reported
04/08/2021 01:45 AM 37.40 34.52 30.38 58.82 35.24 75.0 Not Reported 3.13 NW 2.46 W 3.80 W No 0.000 No Precipitation 03/22/2021 09:23 AM 03/22/2021 09:28 AM 0.000 0.000 0.000 0.000 0.000 Not Reported Not Reported
04/08/2021 01:50 AM 37.04 34.34 30.38 58.82 35.24 76.0 Not Reported 2.46 W 2.91 W 3.58 W No 0.000 No Precipitation 03/22/2021 09:23 AM 03/22/2021 09:28 AM 0.000 0.000 0.000 0.000 0.000 Not Reported Not Reported
04/08/2021 01:55 AM 36.68 34.16 30.56 58.82 35.24 77.0 Not Reported 2.91 W 2.91 NW 3.58 W No 0.000 No Precipitation 03/22/2021 09:23 AM 03/22/2021 09:28 AM 0.000 0.000 0.000 0.000 0.000 Not Reported Not Reported
04/08/2021 02:00 AM 36.86 33.98 30.56 58.82 35.24 77.0 Not Reported 2.91 W 2.68 W 3.58 W No 0.000 No Precipitation 03/22/2021 09:23 AM 03/22/2021 09:28 AM 0.000 0.000 0.000 0.000 0.000 Not Reported Not Reported
04/08/2021 02:05 AM 36.50 33.98 30.56 58.82 35.24 78.0 Not Reported 3.13 W 2.68 W 3.36 NW No 0.000 No Precipitation 03/22/2021 09:23 AM 03/22/2021 09:28 AM 0.000 0.000 0.000 0.000 0.000 Not Reported Not Reported
04/08/2021 02:10 AM 35.96 33.62 30.56 58.82 35.24 79.0 Not Reported 2.46 W 2.46 NW 3.36 W No 0.000 No Precipitation 03/22/2021 09:23 AM 03/22/2021 09:28 AM 0.000 0.000 0.000 0.000 0.000 Not Reported Not Reported
04/08/2021 02:15 AM 35.42 33.26 30.20 58.82 35.24 80.0 Not Reported 2.46 W 2.46 NW 3.36 W No 0.000 No Precipitation 03/22/2021 09:23 AM 03/22/2021 09:28 AM 0.000 0.000 0.000 0.000 0.000 Not Reported Not Reported
04/08/2021 02:20 AM 35.78 33.80 30.92 58.82 35.24 81.0 Not Reported 2.68 NW 2.68 W 3.13 NW No 0.000 No Precipitation 03/22/2021 09:23 AM 03/22/2021 09:28 AM 0.000 0.000 0.000 0.000 0.000 Not Reported Not Reported
04/08/2021 02:25 AM 35.60 33.62 30.92 58.82 35.24 81.0 Not Reported 2.91 W 3.13 NW 3.58 NW No 0.000 No Precipitation 03/22/2021 09:23 AM 03/22/2021 09:28 AM 0.000 0.000 0.000 0.000 0.000 Not Reported Not Reported
04/08/2021 02:30 AM 35.78 33.62 30.74 58.82 35.24 81.0 Not Reported 2.91 W 3.36 W 3.58 NW No 0.000 No Precipitation 03/22/2021 09:23 AM 03/22/2021 09:28 AM 0.000 0.000 0.000 0.000 0.000 Not Reported Not Reported
04/08/2021 02:35 AM 35.24 33.26 30.56 58.82 35.24 82.0 Not Reported 2.68 W 2.68 NW 3.36 W No 0.000 No Precipitation 03/22/2021 09:23 AM 03/22/2021 09:28 AM 0.000 0.000 0.000 0.000 0.000 Not Reported Not Reported
04/08/2021 02:40 AM 35.06 33.26 30.56 58.82 35.06 82.0 Not Reported 2.68 W 2.68 W 3.13 NW No 0.000 No Precipitation 03/22/2021 09:23 AM 03/22/2021 09:28 AM 0.000 0.000 0.000 0.000 0.000 Not Reported Not Reported
04/08/2021 02:45 AM 34.52 32.54 30.02 58.82 34.52 83.0 Not Reported 3.36 W 3.80 W 3.80 W No 0.000 No Precipitation 03/22/2021 09:23 AM 03/22/2021 09:28 AM 0.000 0.000 0.000 0.000 0.000 Not Reported Not Reported
04/08/2021 02:50 AM 33.98 32.54 30.20 58.82 33.98 85.0 Not Reported 3.13 W 3.13 W 4.03 W No 0.000 No Precipitation 03/22/2021 09:23 AM 03/22/2021 09:28 AM 0.000 0.000 0.000 0.000 0.000 Not Reported Not Reported
04/08/2021 02:55 AM 34.16 32.72 30.56 58.82 33.80 85.0 Not Reported 3.80 W 3.80 W 4.92 W No 0.000 No Precipitation 03/22/2021 09:23 AM 03/22/2021 09:28 AM 0.000 0.000 0.000 0.000 0.000 Not Reported Not Reported
04/08/2021 03:05 AM 33.80 32.18 30.02 58.82 33.80 85.0 Not Reported 3.13 W 3.80 W 4.03 W No 0.000 No Precipitation 03/22/2021 09:23 AM 03/22/2021 09:28 AM 0.000 0.000 0.000 0.000 0.000 Not Reported Not Reported
04/08/2021 03:10 AM 33.80 32.18 29.66 58.82 33.80 84.0 Not Reported 3.13 W 2.91 W 4.03 W No 0.000 No Precipitation 03/22/2021 09:23 AM 03/22/2021 09:28 AM 0.000 0.000 0.000 0.000 0.000 Not Reported Not Reported
04/08/2021 03:15 AM 33.80 32.18 30.02 58.82 33.62 85.0 Not Reported 2.68 W 2.68 W 3.58 W No 0.000 No Precipitation 03/22/2021 09:23 AM 03/22/2021 09:28 AM 0.000 0.000 0.000 0.000 0.000 Not Reported Not Reported
04/08/2021 03:20 AM 34.16 32.36 30.02 58.82 33.62 83.0 Not Reported 2.68 W 2.01 W 3.36 W No 0.000 No Precipitation 03/22/2021 09:23 AM 03/22/2021 09:28 AM 0.000 0.000 0.000 0.000 0.000 Not Reported Not Reported
04/08/2021 03:25 AM 33.98 32.18 29.66 58.82 33.62 83.0 Not Reported 2.68 W 2.68 W 3.36 W No 0.000 No Precipitation 03/22/2021 09:23 AM 03/22/2021 09:28 AM 0.000 0.000 0.000 0.000 0.000 Not Reported Not Reported
04/08/2021 03:30 AM 33.98 32.36 29.84 58.82 33.62 83.0 Not Reported 3.58 W 2.68 W 4.03 SW No 0.000 No Precipitation 03/22/2021 09:23 AM 03/22/2021 09:28 AM 0.000 0.000 0.000 0.000 0.000 Not Reported Not Reported
04/08/2021 03:35 AM 34.16 32.36 29.66 58.82 33.62 82.0 Not Reported 3.36 SW 2.68 NW 4.03 SW No 0.000 No Precipitation 03/22/2021 09:23 AM 03/22/2021 09:28 AM 0.000 0.000 0.000 0.000 0.000 Not Reported Not Reported
04/08/2021 03:40 AM 34.34 32.36 29.48 58.82 33.62 81.0 Not Reported 2.91 W 2.46 W 3.80 SW No 0.000 No Precipitation 03/22/2021 09:23 AM 03/22/2021 09:28 AM 0.000 0.000 0.000 0.000 0.000 Not Reported Not Reported
04/08/2021 03:45 AM 34.52 32.54 29.48 58.82 33.62 80.0 Not Reported 2.91 W 2.68 W 4.03 W No 0.000 No Precipitation 03/22/2021 09:23 AM 03/22/2021 09:28 AM 0.000 0.000 0.000 0.000 0.000 Not Reported Not Reported
04/08/2021 03:50 AM 34.52 32.36 29.12 58.82 33.62 80.0 Not Reported 3.36 W 3.13 W 4.03 W No 0.000 No Precipitation 03/22/2021 09:23 AM 03/22/2021 09:28 AM 0.000 0.000 0.000 0.000 0.000 Not Reported Not Reported
04/08/2021 03:55 AM 34.70 32.36 28.94 58.82 33.62 78.0 Not Reported 2.46 W 3.13 W 4.03 W No 0.000 No Precipitation 03/22/2021 09:23 AM 03/22/2021 09:28 AM 0.000 0.000 0.000 0.000 0.000 Not Reported Not Reported
04/08/2021 04:00 AM 34.16 32.00 28.58 58.82 33.62 79.0 Not Reported 2.68 W 4.25 W 4.25 W No 0.000 No Precipitation 03/22/2021 09:23 AM 03/22/2021 09:28 AM 0.000 0.000 0.000 0.000 0.000 Not Reported Not Reported
04/08/2021 04:05 AM 33.98 32.00 28.76 58.82 33.62 80.0 Not Reported 3.58 SW 2.68 W 4.47 W No 0.000 No Precipitation 03/22/2021 09:23 AM 03/22/2021 09:28 AM 0.000 0.000 0.000 0.000 0.000 Not Reported Not Reported
04/08/2021 04:10 AM 34.34 32.00 28.58 58.82 33.62 79.0 Not Reported 3.58 W 2.91 W 4.47 W No 0.000 No Precipitation 03/22/2021 09:23 AM 03/22/2021 09:28 AM 0.000 0.000 0.000 0.000 0.000 Not Reported Not Reported
04/08/2021 04:15 AM 35.42 32.72 28.76 58.82 33.62 75.0 Not Reported 4.47 W 3.36 NW 4.92 W No 0.000 No Precipitation 03/22/2021 09:23 AM 03/22/2021 09:28 AM 0.000 0.000 0.000 0.000 0.000 Not Reported Not Reported
04/08/2021 04:20 AM 34.70 32.18 28.40 58.82 33.62 77.0 Not Reported 2.24 W 2.68 NW 4.92 W No 0.000 No Precipitation 03/22/2021 09:23 AM 03/22/2021 09:28 AM 0.000 0.000 0.000 0.000 0.000 Not Reported Not Reported
04/08/2021 04:25 AM 34.70 32.18 28.40 58.82 33.62 77.0 Not Reported 2.68 W 3.80 W 3.80 W No 0.000 No Precipitation 03/22/2021 09:23 AM 03/22/2021 09:28 AM 0.000 0.000 0.000 0.000 0.000 Not Reported Not Reported
04/08/2021 04:30 AM 35.24 32.54 28.40 58.82 33.62 75.0 Not Reported 4.03 SW 4.25 W 5.14 W No 0.000 No Precipitation 03/22/2021 09:23 AM 03/22/2021 09:28 AM 0.000 0.000 0.000 0.000 0.000 Not Reported Not Reported
04/08/2021 04:35 AM 35.06 32.36 28.40 58.82 33.62 76.0 Not Reported 3.13 W 4.92 W 5.14 W No 0.000 No Precipitation 03/22/2021 09:23 AM 03/22/2021 09:28 AM 0.000 0.000 0.000 0.000 0.000 Not Reported Not Reported
04/08/2021 04:40 AM 34.70 32.18 28.40 58.82 33.62 76.0 Not Reported 2.91 W 3.13 W 4.92 W No 0.000 No Precipitation 03/22/2021 09:23 AM 03/22/2021 09:28 AM 0.000 0.000 0.000 0.000 0.000 Not Reported Not Reported
04/08/2021 04:45 AM 34.52 32.18 28.40 58.82 33.62 77.0 Not Reported 3.36 W 2.24 W 4.92 W No 0.000 No Precipitation 03/22/2021 09:23 AM 03/22/2021 09:28 AM 0.000 0.000 0.000 0.000 0.000 Not Reported Not Reported
04/08/2021 04:50 AM 34.52 32.00 28.58 58.82 33.62 78.0 Not Reported 2.68 W 2.24 W 4.03 W No 0.000 No Precipitation 03/22/2021 09:23 AM 03/22/2021 09:28 AM 0.000 0.000 0.000 0.000 0.000 Not Reported Not Reported
04/08/2021 04:55 AM 34.16 32.00 28.40 58.82 33.62 78.0 Not Reported 1.79 W 2.01 W 3.13 W No 0.000 No Precipitation 03/22/2021 09:23 AM 03/22/2021 09:28 AM 0.000 0.000 0.000 0.000 0.000 Not Reported Not Reported
04/08/2021 05:00 AM 33.44 31.64 28.22 58.82 33.44 80.0 Not Reported 2.01 W 2.01 W 3.13 W No 0.000 No Precipitation 03/22/2021 09:23 AM 03/22/2021 09:28 AM 0.000 0.000 0.000 0.000 0.000 Not Reported Not Reported
04/08/2021 05:05 AM 33.26 31.46 28.22 58.82 33.26 80.0 Not Reported 2.24 W 2.01 SW 2.24 W No 0.000 No Precipitation 03/22/2021 09:23 AM 03/22/2021 09:28 AM 0.000 0.000 0.000 0.000 0.000 Not Reported Not Reported
04/08/2021 05:10 AM 32.90 31.10 28.04 58.82 32.90 81.0 Not Reported 2.24 W 1.79 SW 2.91 SW No 0.000 No Precipitation 03/22/2021 09:23 AM 03/22/2021 09:28 AM 0.000 0.000 0.000 0.000 0.000 Not Reported Not Reported
04/08/2021 05:15 AM 32.90 31.28 28.04 58.82 32.90 81.0 Not Reported 1.57 W 1.57 W 2.91 SW No 0.000 No Precipitation 03/22/2021 09:23 AM 03/22/2021 09:28 AM 0.000 0.000 0.000 0.000 0.000 Not Reported Not Reported
04/08/2021 05:20 AM 32.90 31.10 28.04 58.82 32.72 81.0 Not Reported 2.24 W 2.46 W 2.46 W No 0.000 No Precipitation 03/22/2021 09:23 AM 03/22/2021 09:28 AM 0.000 0.000 0.000 0.000 0.000 Not Reported Not Reported
04/08/2021 05:25 AM 32.90 31.10 27.68 58.82 32.72 80.0 Not Reported 2.24 W 2.91 W 2.91 W No 0.000 No Precipitation 03/22/2021 09:23 AM 03/22/2021 09:28 AM 0.000 0.000 0.000 0.000 0.000 Not Reported Not Reported
04/08/2021 05:30 AM 32.90 31.10 27.86 58.82 32.72 80.0 Not Reported 2.01 W 2.91 W 2.91 W No 0.000 No Precipitation 03/22/2021 09:23 AM 03/22/2021 09:28 AM 0.000 0.000 0.000 0.000 0.000 Not Reported Not Reported
04/08/2021 05:35 AM 32.54 30.92 27.68 58.82 32.54 81.0 Not Reported 2.24 W 3.36 W 3.36 W No 0.000 No Precipitation 03/22/2021 09:23 AM 03/22/2021 09:28 AM 0.000 0.000 0.000 0.000 0.000 Not Reported Not Reported
04/08/2021 05:40 AM 32.54 30.74 27.50 58.82 32.54 80.0 Not Reported 2.46 W 3.36 W 3.36 W No 0.000 No Precipitation 03/22/2021 09:23 AM 03/22/2021 09:28 AM 0.000 0.000 0.000 0.000 0.000 Not Reported Not Reported
04/08/2021 05:45 AM 32.54 30.74 27.32 58.82 32.54 80.0 Not Reported 2.91 W 3.36 W 3.36 W No 0.000 No Precipitation 03/22/2021 09:23 AM 03/22/2021 09:28 AM 0.000 0.000 0.000 0.000 0.000 Not Reported Not Reported
04/08/2021 05:50 AM 32.18 30.56 27.32 58.82 32.18 81.0 Not Reported 3.13 W 2.46 NW 4.25 W No 0.000 No Precipitation 03/22/2021 09:23 AM 03/22/2021 09:28 AM 0.000 0.000 0.000 0.000 0.000 Not Reported Not Reported
04/08/2021 05:55 AM 32.18 30.56 27.14 58.82 32.00 80.0 Not Reported 3.58 W 3.13 W 4.25 W No 0.000 No Precipitation 03/22/2021 09:23 AM 03/22/2021 09:28 AM 0.000 0.000 0.000 0.000 0.000 Not Reported Not Reported
04/08/2021 06:00 AM 32.36 30.56 27.14 58.82 32.00 79.0 Not Reported 2.46 W 2.91 W 4.25 W No 0.000 No Precipitation 03/22/2021 09:23 AM 03/22/2021 09:28 AM 0.000 0.000 0.000 0.000 0.000 Not Reported Not Reported
04/08/2021 06:05 AM 32.18 30.38 26.78 58.82 32.00 79.0 Not Reported 2.24 W 2.24 W 3.13 W No 0.000 No Precipitation 03/22/2021 09:23 AM 03/22/2021 09:28 AM 0.000 0.000 0.000 0.000 0.000 Not Reported Not Reported
04/08/2021 06:10 AM 32.00 30.20 26.96 58.82 32.00 80.0 Not Reported 2.68 W 2.91 W 2.91 W No 0.000 No Precipitation 03/22/2021 09:23 AM 03/22/2021 09:28 AM 0.000 0.000 0.000 0.000 0.000 Not Reported Not Reported
04/08/2021 06:15 AM 32.18 30.38 26.96 58.82 32.00 80.0 Not Reported 2.68 W 2.68 NW 3.13 W No 0.000 No Precipitation 03/22/2021 09:23 AM 03/22/2021 09:28 AM 0.000 0.000 0.000 0.000 0.000 Not Reported Not Reported
04/08/2021 06:20 AM 32.36 30.56 26.96 58.82 32.00 79.0 Not Reported 3.36 W 3.13 W 3.80 W No 0.000 No Precipitation 03/22/2021 09:23 AM 03/22/2021 09:28 AM 0.000 0.000 0.000 0.000 0.000 Not Reported Not Reported
04/08/2021 06:25 AM 32.72 30.56 26.78 58.82 32.00 78.0 Not Reported 3.13 W 3.13 W 4.92 W No 0.000 No Precipitation 03/22/2021 09:23 AM 03/22/2021 09:28 AM 0.000 0.000 0.000 0.000 0.000 Not Reported Not Reported
04/08/2021 06:30 AM 32.90 30.92 27.14 58.82 32.00 78.0 Not Reported 3.58 W 3.13 W 4.92 W No 0.000 No Precipitation 03/22/2021 09:23 AM 03/22/2021 09:28 AM 0.000 0.000 0.000 0.000 0.000 Not Reported Not Reported
04/08/2021 06:35 AM 32.72 30.74 26.96 58.82 32.00 78.0 Not Reported 3.36 W 2.68 W 4.47 W No 0.000 No Precipitation 03/22/2021 09:23 AM 03/22/2021 09:28 AM 0.000 0.000 0.000 0.000 0.000 Not Reported Not Reported
04/08/2021 06:40 AM 32.54 30.56 26.78 58.82 32.00 78.0 Not Reported 2.46 W 3.13 NW 3.58 W No 0.000 No Precipitation 03/22/2021 09:23 AM 03/22/2021 09:28 AM 0.000 0.000 0.000 0.000 0.000 Not Reported Not Reported
04/08/2021 06:45 AM 32.90 30.74 26.78 58.82 32.00 77.0 Not Reported 2.68 W 2.24 W 3.58 NW No 0.000 No Precipitation 03/22/2021 09:23 AM 03/22/2021 09:28 AM 0.000 0.000 0.000 0.000 0.000 Not Reported Not Reported
04/08/2021 06:50 AM 33.26 30.92 26.96 58.82 32.00 76.0 Not Reported 2.91 W 2.91 NW 3.58 NW No 0.000 No Precipitation 03/22/2021 09:23 AM 03/22/2021 09:28 AM 0.000 0.000 0.000 0.000 0.000 Not Reported Not Reported
04/08/2021 06:55 AM 33.80 31.10 26.60 58.82 32.00 74.0 Not Reported 3.13 W 3.80 W 4.25 NW No 0.000 No Precipitation 03/22/2021 09:23 AM 03/22/2021 09:28 AM 0.000 0.000 0.000 0.000 0.000 Not Reported Not Reported
04/08/2021 07:00 AM 33.98 31.46 26.78 58.82 32.00 74.0 Not Reported 2.01 W 2.24 NW 4.25 NW No 0.000 No Precipitation 03/22/2021 09:23 AM 03/22/2021 09:28 AM 0.000 0.000 0.000 0.000 0.000 Not Reported Not Reported
04/08/2021 07:05 AM 33.62 31.28 26.96 58.82 32.00 75.0 Not Reported 1.79 W 2.46 W 2.68 W No 0.000 No Precipitation 03/22/2021 09:23 AM 03/22/2021 09:28 AM 0.000 0.000 0.000 0.000 0.000 Not Reported Not Reported
04/08/2021 07:10 AM 33.44 31.28 27.14 58.82 32.00 76.0 Not Reported 2.46 W 2.01 NW 2.68 W No 0.000 No Precipitation 03/22/2021 09:23 AM 03/22/2021 09:28 AM 0.000 0.000 0.000 0.000 0.000 Not Reported Not Reported
04/08/2021 07:15 AM 33.80 31.46 27.32 58.82 32.00 76.0 Not Reported 2.46 W 2.01 W 2.91 W No 0.000 No Precipitation 03/22/2021 09:23 AM 03/22/2021 09:28 AM 0.000 0.000 0.000 0.000 0.000 Not Reported Not Reported
04/08/2021 07:20 AM 33.98 31.46 27.14 58.82 32.00 75.0 Not Reported 2.24 W 1.57 NW 2.91 W No 0.000 No Precipitation 03/22/2021 09:23 AM 03/22/2021 09:28 AM 0.000 0.000 0.000 0.000 0.000 Not Reported Not Reported
04/08/2021 07:25 AM 34.52 32.00 27.50 58.82 32.00 74.0 Not Reported 2.91 W 3.36 NW 3.36 W No 0.000 No Precipitation 03/22/2021 09:23 AM 03/22/2021 09:28 AM 0.000 0.000 0.000 0.000 0.000 Not Reported Not Reported
04/08/2021 07:30 AM 35.06 32.18 27.68 58.82 32.00 73.0 Not Reported 1.79 W 2.01 W 3.36 W No 0.000 No Precipitation 03/22/2021 09:23 AM 03/22/2021 09:28 AM 0.000 0.000 0.000 0.000 0.000 Not Reported Not Reported
04/08/2021 07:35 AM 35.24 32.36 27.86 58.82 32.00 73.0 Not Reported 1.57 W 2.01 W 2.91 W No 0.000 No Precipitation 03/22/2021 09:23 AM 03/22/2021 09:28 AM 0.000 0.000 0.000 0.000 0.000 Not Reported Not Reported
04/08/2021 07:40 AM 35.42 32.54 28.40 58.82 32.00 74.0 Not Reported 1.34 NW 1.12 W 2.68 NW No 0.000 No Precipitation 03/22/2021 09:23 AM 03/22/2021 09:28 AM 0.000 0.000 0.000 0.000 0.000 Not Reported Not Reported
04/08/2021 07:45 AM 36.14 33.08 28.94 58.82 32.00 74.0 Not Reported 0.67 NW 0.67 W 1.79 NW No 0.000 No Precipitation 03/22/2021 09:23 AM 03/22/2021 09:28 AM 0.000 0.000 0.000 0.000 0.000 Not Reported Not Reported
04/08/2021 07:50 AM 36.86 33.62 28.76 58.82 32.00 71.0 Not Reported 0.00 NW 0.22 W 1.34 W No 0.000 No Precipitation 03/22/2021 09:23 AM 03/22/2021 09:28 AM 0.000 0.000 0.000 0.000 0.000 Not Reported Not Reported
04/08/2021 07:55 AM 37.40 34.16 29.30 58.82 32.00 71.0 Not Reported 0.00 N 0.00 N 0.89 NW No 0.000 No Precipitation 03/22/2021 09:23 AM 03/22/2021 09:28 AM 0.000 0.000 0.000 0.000 0.000 Not Reported Not Reported
04/08/2021 08:00 AM 38.30 34.70 29.30 58.82 32.00 69.0 Not Reported 0.45 E 0.89 E 0.89 E No 0.000 No Precipitation 03/22/2021 09:23 AM 03/22/2021 09:28 AM 0.000 0.000 0.000 0.000 0.000 Not Reported Not Reported
04/08/2021 08:05 AM 38.84 35.06 29.30 58.82 32.00 66.0 Not Reported 1.12 E 2.24 E 2.24 SE No 0.000 No Precipitation 03/22/2021 09:23 AM 03/22/2021 09:28 AM 0.000 0.000 0.000 0.000 0.000 Not Reported Not Reported
04/08/2021 08:10 AM 39.74 35.42 29.12 58.82 32.00 64.0 Not Reported 2.01 E 2.24 SE 2.46 E No 0.000 No Precipitation 03/22/2021 09:23 AM 03/22/2021 09:28 AM 0.000 0.000 0.000 0.000 0.000 Not Reported Not Reported
04/08/2021 08:15 AM 40.28 35.42 28.40 58.82 32.00 61.0 Not Reported 4.25 E 3.36 E 5.14 E No 0.000 No Precipitation 03/22/2021 09:23 AM 03/22/2021 09:28 AM 0.000 0.000 0.000 0.000 0.000 Not Reported Not Reported
04/08/2021 08:20 AM 40.46 35.24 27.50 58.82 32.00 58.0 Not Reported 2.68 E 3.36 E 5.14 E No 0.000 No Precipitation 03/22/2021 09:23 AM 03/22/2021 09:28 AM 0.000 0.000 0.000 0.000 0.000 Not Reported Not Reported
04/08/2021 08:25 AM 40.64 35.42 27.50 58.82 32.00 58.0 Not Reported 2.46 E 4.03 SE 4.03 E No 0.000 No Precipitation 03/22/2021 09:23 AM 03/22/2021 09:28 AM 0.000 0.000 0.000 0.000 0.000 Not Reported Not Reported
04/08/2021 08:30 AM 40.82 35.24 26.24 58.82 32.00 55.0 Not Reported 3.36 E 4.25 E 4.03 SE No 0.000 No Precipitation 03/22/2021 09:23 AM 03/22/2021 09:28 AM 0.000 0.000 0.000 0.000 0.000 Not Reported Not Reported
04/08/2021 08:35 AM 41.00 35.42 26.60 58.82 32.00 55.0 Not Reported 3.13 E 4.70 E 4.70 E No 0.000 No Precipitation 03/22/2021 09:23 AM 03/22/2021 09:28 AM 0.000 0.000 0.000 0.000 0.000 Not Reported Not Reported
04/08/2021 08:40 AM 41.72 35.78 26.96 58.82 32.00 54.0 Not Reported 2.46 E 3.36 SE 4.70 E No 0.000 No Precipitation 03/22/2021 09:23 AM 03/22/2021 09:28 AM 0.000 0.000 0.000 0.000 0.000 Not Reported Not Reported
04/08/2021 08:50 AM 42.80 37.04 28.76 58.82 32.00 57.0 Not Reported 2.24 SE 2.01 SE 4.03 E No 0.000 No Precipitation 03/22/2021 09:23 AM 03/22/2021 09:28 AM 0.000 0.000 0.000 0.000 0.000 Not Reported Not Reported
04/08/2021 08:55 AM 42.80 36.32 26.60 58.82 32.00 52.0 Not Reported 2.68 E 1.79 E 4.03 E No 0.000 No Precipitation 03/22/2021 09:23 AM 03/22/2021 09:28 AM 0.000 0.000 0.000 0.000 0.000 Not Reported Not Reported
04/08/2021 09:00 AM 43.34 36.86 27.14 58.82 32.00 52.0 Not Reported 0.89 SE 1.34 E 3.58 E No 0.000 No Precipitation 03/22/2021 09:23 AM 03/22/2021 09:28 AM 0.000 0.000 0.000 0.000 0.000 Not Reported Not Reported
04/08/2021 09:05 AM 44.24 37.22 26.78 58.82 32.00 49.0 Not Reported 0.89 E 0.22 W 2.68 SE No 0.000 No Precipitation 03/22/2021 09:23 AM 03/22/2021 09:28 AM 0.000 0.000 0.000 0.000 0.000 Not Reported Not Reported
04/08/2021 09:10 AM 44.60 37.58 27.50 58.82 32.00 50.0 Not Reported 0.22 NW 0.00 NW 2.24 E No 0.000 No Precipitation 03/22/2021 09:23 AM 03/22/2021 09:28 AM 0.000 0.000 0.000 0.000 0.000 Not Reported Not Reported
04/08/2021 09:15 AM 44.24 37.22 26.78 58.82 32.00 49.0 Not Reported 2.46 E 1.57 E 3.36 NE No 0.000 No Precipitation 03/22/2021 09:23 AM 03/22/2021 09:28 AM 0.000 0.000 0.000 0.000 0.000 Not Reported Not Reported
04/08/2021 09:20 AM 45.32 38.12 27.86 58.82 32.00 49.0 Not Reported 1.57 SE 1.12 SE 3.36 NE No 0.000 No Precipitation 03/22/2021 09:23 AM 03/22/2021 09:28 AM 0.000 0.000 0.000 0.000 0.000 Not Reported Not Reported
04/08/2021 09:25 AM 46.40 38.12 25.70 58.82 32.00 43.0 Not Reported 1.57 W 2.91 W 3.80 SW No 0.000 No Precipitation 03/22/2021 09:23 AM 03/22/2021 09:28 AM 0.000 0.000 0.000 0.000 0.000 Not Reported Not Reported
04/08/2021 09:30 AM 46.76 38.12 25.34 58.82 32.00 42.0 Not Reported 0.67 SW 2.91 SW 3.80 SW No 0.000 No Precipitation 03/22/2021 09:23 AM 03/22/2021 09:28 AM 0.000 0.000 0.000 0.000 0.000 Not Reported Not Reported
04/08/2021 09:35 AM 46.94 38.12 24.98 58.82 32.00 41.0 Not Reported 1.79 N 3.13 W 4.25 SW No 0.000 No Precipitation 03/22/2021 09:23 AM 03/22/2021 09:28 AM 0.000 0.000 0.000 0.000 0.000 Not Reported Not Reported
04/08/2021 09:40 AM 46.76 37.76 24.08 58.82 32.00 40.0 Not Reported 4.03 W 3.36 NW 4.70 NW No 0.000 No Precipitation 03/22/2021 09:23 AM 03/22/2021 09:28 AM 0.000 0.000 0.000 0.000 0.000 Not Reported Not Reported
04/08/2021 09:45 AM 47.30 37.94 23.18 58.82 32.00 38.0 Not Reported 4.70 W 1.34 W 5.59 W No 0.000 No Precipitation 03/22/2021 09:23 AM 03/22/2021 09:28 AM 0.000 0.000 0.000 0.000 0.000 Not Reported Not Reported
04/08/2021 09:50 AM 47.66 37.94 22.46 58.82 32.00 36.0 Not Reported 3.58 NW 6.04 SW 6.04 SW No 0.000 No Precipitation 03/22/2021 09:23 AM 03/22/2021 09:28 AM 0.000 0.000 0.000 0.000 0.000 Not Reported Not Reported
04/08/2021 09:55 AM 48.02 37.58 20.30 58.82 32.00 32.0 Not Reported 2.68 W 5.14 W 6.04 SW No 0.000 No Precipitation 03/22/2021 09:23 AM 03/22/2021 09:28 AM 0.000 0.000 0.000 0.000 0.000 Not Reported Not Reported
04/08/2021 10:00 AM 48.02 37.94 21.92 58.82 32.00 34.0 Not Reported 2.91 W 3.13 W 5.59 W No 0.000 No Precipitation 03/22/2021 09:23 AM 03/22/2021 09:28 AM 0.000 0.000 0.000 0.000 0.000 Not Reported Not Reported
04/08/2021 10:05 AM 48.56 38.84 24.08 58.82 32.00 37.0 Not Reported 4.03 SW 2.01 W 5.82 SW No 0.000 No Precipitation 03/22/2021 09:23 AM 03/22/2021 09:28 AM 0.000 0.000 0.000 0.000 0.000 Not Reported Not Reported
04/08/2021 10:10 AM 48.92 38.30 21.02 58.82 32.00 32.0 Not Reported 3.58 W 5.14 NW 5.82 SW No 0.000 No Precipitation 03/22/2021 09:23 AM 03/22/2021 09:28 AM 0.000 0.000 0.000 0.000 0.000 Not Reported Not Reported
04/08/2021 10:15 AM 48.38 38.12 21.38 58.82 32.00 33.0 Not Reported 3.36 SW 3.80 W 7.16 W No 0.000 No Precipitation 03/22/2021 09:23 AM 03/22/2021 09:28 AM 0.000 0.000 0.000 0.000 0.000 Not Reported Not Reported
04/08/2021 10:20 AM 48.74 38.12 21.20 58.82 32.00 33.0 Not Reported 3.58 W 3.36 W 7.16 W No 0.000 No Precipitation 03/22/2021 09:23 AM 03/22/2021 09:28 AM 0.000 0.000 0.000 0.000 0.000 Not Reported Not Reported
04/08/2021 10:25 AM 48.38 37.94 20.84 58.82 32.00 33.0 Not Reported 5.82 W 6.93 W 8.72 W No 0.000 No Precipitation 03/22/2021 09:23 AM 03/22/2021 09:28 AM 0.000 0.000 0.000 0.000 0.000 Not Reported Not Reported
04/08/2021 10:30 AM 48.56 38.48 22.82 58.82 32.00 35.0 Not Reported 5.59 W 6.04 SW 8.72 W No 0.000 No Precipitation 03/22/2021 09:23 AM 03/22/2021 09:28 AM 0.000 0.000 0.000 0.000 0.000 Not Reported Not Reported
04/08/2021 10:35 AM 48.38 38.30 22.64 58.82 32.00 35.0 Not Reported 5.37 W 4.25 NW 7.16 W No 0.000 No Precipitation 03/22/2021 09:23 AM 03/22/2021 09:28 AM 0.000 0.000 0.000 0.000 0.000 Not Reported Not Reported
04/08/2021 10:40 AM 48.38 38.30 22.46 58.82 32.00 35.0 Not Reported 6.26 W 4.70 W 8.50 NW No 0.000 No Precipitation 03/22/2021 09:23 AM 03/22/2021 09:28 AM 0.000 0.000 0.000 0.000 0.000 Not Reported Not Reported
04/08/2021 10:45 AM 48.38 38.12 21.74 58.82 32.00 34.0 Not Reported 5.37 W 1.57 NW 8.50 NW No 0.000 No Precipitation 03/22/2021 09:23 AM 03/22/2021 09:28 AM 0.000 0.000 0.000 0.000 0.000 Not Reported Not Reported
04/08/2021 10:50 AM 50.00 39.38 23.54 58.82 32.00 34.0 Not Reported 3.80 SW 3.36 SW 7.16 NW No 0.000 No Precipitation 03/22/2021 09:23 AM 03/22/2021 09:28 AM 0.000 0.000 0.000 0.000 0.000 Not Reported Not Reported
04/08/2021 10:55 AM 50.18 39.56 23.72 58.82 32.00 34.0 Not Reported 4.70 W 2.46 W 6.26 W No 0.000 No Precipitation 03/22/2021 09:23 AM 03/22/2021 09:28 AM 0.000 0.000 0.000 0.000 0.000 Not Reported Not Reported
04/08/2021 11:00 AM 49.64 39.38 24.08 58.82 32.00 36.0 Not Reported 6.04 NW 3.58 N 7.61 NW No 0.000 No Precipitation 03/22/2021 09:23 AM 03/22/2021 09:28 AM 0.000 0.000 0.000 0.000 0.000 Not Reported Not Reported
04/08/2021 11:05 AM 50.36 39.56 23.18 58.82 32.00 33.0 Not Reported 5.59 NW 4.03 S 7.83 NW No 0.000 No Precipitation 03/22/2021 09:23 AM 03/22/2021 09:28 AM 0.000 0.000 0.000 0.000 0.000 Not Reported Not Reported
04/08/2021 11:10 AM 50.00 39.38 23.54 58.82 32.00 35.0 Not Reported 4.92 W 3.36 W 8.05 W No 0.000 No Precipitation 03/22/2021 09:23 AM 03/22/2021 09:28 AM 0.000 0.000 0.000 0.000 0.000 Not Reported Not Reported
04/08/2021 11:15 AM 50.72 40.10 24.62 58.82 32.00 35.0 Not Reported 4.47 NW 4.70 W 8.05 W No 0.000 No Precipitation 03/22/2021 09:23 AM 03/22/2021 09:28 AM 0.000 0.000 0.000 0.000 0.000 Not Reported Not Reported
04/08/2021 11:20 AM 50.36 39.74 23.90 58.82 32.00 35.0 Not Reported 5.82 NW 4.03 NW 7.83 NW No 0.000 No Precipitation 03/22/2021 09:23 AM 03/22/2021 09:28 AM 0.000 0.000 0.000 0.000 0.000 Not Reported Not Reported
04/08/2021 11:25 AM 50.18 39.56 23.36 58.82 32.00 34.0 Not Reported 6.04 NW 4.47 W 7.61 W No 0.000 No Precipitation 03/22/2021 09:23 AM 03/22/2021 09:28 AM 0.000 0.000 0.000 0.000 0.000 Not Reported Not Reported
04/08/2021 11:30 AM 50.36 39.56 22.82 58.82 32.00 33.0 Not Reported 6.04 W 4.47 W 8.95 SW No 0.000 No Precipitation 03/22/2021 09:23 AM 03/22/2021 09:28 AM 0.000 0.000 0.000 0.000 0.000 Not Reported Not Reported
04/08/2021 11:35 AM 50.72 39.74 23.18 58.82 32.00 33.0 Not Reported 3.58 W 7.61 W 8.95 SW No 0.000 No Precipitation 03/22/2021 09:23 AM 03/22/2021 09:28 AM 0.000 0.000 0.000 0.000 0.000 Not Reported Not Reported
04/08/2021 11:40 AM 50.36 39.02 21.38 58.82 32.00 31.0 Not Reported 5.82 NW 6.71 SW 7.83 NW No 0.000 No Precipitation 03/22/2021 09:23 AM 03/22/2021 09:28 AM 0.000 0.000 0.000 0.000 0.000 Not Reported Not Reported
04/08/2021 11:45 AM 50.36 39.20 21.92 58.82 32.00 32.0 Not Reported 5.14 W 2.24 N 7.83 NW No 0.000 No Precipitation 03/22/2021 09:23 AM 03/22/2021 09:28 AM 0.000 0.000 0.000 0.000 0.000 Not Reported Not Reported
04/08/2021 11:50 AM 50.90 39.92 23.90 58.82 32.00 34.0 Not Reported 3.36 W 3.36 W 7.61 W No 0.000 No Precipitation 03/22/2021 09:23 AM 03/22/2021 09:28 AM 0.000 0.000 0.000 0.000 0.000 Not Reported Not Reported
04/08/2021 11:55 AM 51.44 40.10 23.36 58.82 32.00 32.0 Not Reported 6.04 W 2.68 S 7.83 W No 0.000 No Precipitation 03/22/2021 09:23 AM 03/22/2021 09:28 AM 0.000 0.000 0.000 0.000 0.000 Not Reported Not Reported
04/08/2021 12:00 PM 50.90 39.74 23.18 58.82 32.00 33.0 Not Reported 4.70 W 2.91 SW 7.83 W No 0.000 No Precipitation 03/22/2021 09:23 AM 03/22/2021 09:28 AM 0.000 0.000 0.000 0.000 0.000 Not Reported Not Reported
04/08/2021 12:05 PM 51.26 39.92 23.00 58.82 32.00 32.0 Not Reported 2.68 SE 7.16 W 8.50 W No 0.000 No Precipitation 03/22/2021 09:23 AM 03/22/2021 09:28 AM 0.000 0.000 0.000 0.000 0.000 Not Reported Not Reported
04/08/2021 12:10 PM 51.80 40.28 23.36 58.82 32.00 32.0 Not Reported 6.71 W 6.04 W 8.95 SW No 0.000 No Precipitation 03/22/2021 09:23 AM 03/22/2021 09:28 AM 0.000 0.000 0.000 0.000 0.000 Not Reported Not Reported
04/08/2021 12:15 PM 52.52 41.00 24.62 58.82 32.00 33.0 Not Reported 2.91 W 4.25 NW 8.95 SW No 0.000 No Precipitation 03/22/2021 09:23 AM 03/22/2021 09:28 AM 0.000 0.000 0.000 0.000 0.000 Not Reported Not Reported
04/08/2021 12:20 PM 52.88 41.00 24.08 58.82 32.00 32.0 Not Reported 3.58 E 3.80 NE 6.49 N No 0.000 No Precipitation 03/22/2021 09:23 AM 03/22/2021 09:28 AM 0.000 0.000 0.000 0.000 0.000 Not Reported Not Reported
04/08/2021 12:25 PM 53.42 41.72 25.16 58.82 32.00 32.0 Not Reported 3.80 W 4.25 W 6.49 N No 0.000 No Precipitation 03/22/2021 09:23 AM 03/22/2021 09:28 AM 0.000 0.000 0.000 0.000 0.000 Not Reported Not Reported
04/08/2021 12:30 PM 51.62 40.28 23.90 58.82 32.00 33.0 Not Reported 6.04 W 8.95 NW 8.95 NW No 0.000 No Precipitation 03/22/2021 09:23 AM 03/22/2021 09:28 AM 0.000 0.000 0.000 0.000 0.000 Not Reported Not Reported
04/08/2021 12:35 PM 51.62 40.46 23.90 58.82 32.00 33.0 Not Reported 2.24 SW 4.25 SW 8.95 NW No 0.000 No Precipitation 03/22/2021 09:23 AM 03/22/2021 09:28 AM 0.000 0.000 0.000 0.000 0.000 Not Reported Not Reported
04/08/2021 12:40 PM 52.16 40.82 24.62 58.82 32.00 33.0 Not Reported 4.03 SW 6.04 SW 7.16 W No 0.000 No Precipitation 03/22/2021 09:23 AM 03/22/2021 09:28 AM 0.000 0.000 0.000 0.000 0.000 Not Reported Not Reported
04/08/2021 12:45 PM 52.88 41.36 24.62 58.82 32.00 32.0 Not Reported 4.70 W 1.34 NW 6.49 SW No 0.000 No Precipitation 03/22/2021 09:23 AM 03/22/2021 09:28 AM 0.000 0.000 0.000 0.000 0.000 Not Reported Not Reported
04/08/2021 12:50 PM 52.34 40.64 23.00 58.82 32.00 31.0 Not Reported 6.04 SW 6.49 NW 7.16 SW No 0.000 No Precipitation 03/22/2021 09:23 AM 03/22/2021 09:28 AM 0.000 0.000 0.000 0.000 0.000 Not Reported Not Reported
04/08/2021 12:55 PM 53.42 41.54 24.44 58.82 32.00 31.0 Not Reported 2.91 NW 3.13 N 7.16 SW No 0.000 No Precipitation 03/22/2021 09:23 AM 03/22/2021 09:28 AM 0.000 0.000 0.000 0.000 0.000 Not Reported Not Reported
04/08/2021 01:00 PM 53.24 41.18 23.72 58.82 32.00 31.0 Not Reported 4.03 NW 3.58 W 5.37 N No 0.000 No Precipitation 03/22/2021 09:23 AM 03/22/2021 09:28 AM 0.000 0.000 0.000 0.000 0.000 Not Reported Not Reported
04/08/2021 01:05 PM 53.06 41.18 24.26 58.82 32.00 32.0 Not Reported 4.03 NW 4.03 NW 7.16 NW No 0.000 No Precipitation 03/22/2021 09:23 AM 03/22/2021 09:28 AM 0.000 0.000 0.000 0.000 0.000 Not Reported Not Reported
04/08/2021 01:10 PM 54.50 42.26 25.16 58.82 32.00 31.0 Not Reported 6.04 NW 8.50 NW 9.84 N No 0.000 No Precipitation 03/22/2021 09:23 AM 03/22/2021 09:28 AM 0.000 0.000 0.000 0.000 0.000 Not Reported Not Reported
04/08/2021 01:15 PM 53.24 41.36 24.26 58.82 32.00 31.0 Not Reported 4.47 W 5.37 W 10.51 W No 0.000 No Precipitation 03/22/2021 09:23 AM 03/22/2021 09:28 AM 0.000 0.000 0.000 0.000 0.000 Not Reported Not Reported
04/08/2021 01:20 PM 53.06 41.36 24.44 58.82 32.00 32.0 Not Reported 4.92 NW 5.82 NW 10.51 W No 0.000 No Precipitation 03/22/2021 09:23 AM 03/22/2021 09:28 AM 0.000 0.000 0.000 0.000 0.000 Not Reported Not Reported
04/08/2021 01:25 PM 53.78 41.90 24.98 58.82 32.00 32.0 Not Reported 7.16 W 4.47 N 8.72 W No 0.000 No Precipitation 03/22/2021 09:23 AM 03/22/2021 09:28 AM 0.000 0.000 0.000 0.000 0.000 Not Reported Not Reported
04/08/2021 01:30 PM 54.32 41.90 24.08 58.82 32.00 30.0 Not Reported 8.50 W 0.22 W 10.51 SW No 0.000 No Precipitation 03/22/2021 09:23 AM 03/22/2021 09:28 AM 0.000 0.000 0.000 0.000 0.000 Not Reported Not Reported
04/08/2021 01:35 PM 54.50 41.54 22.10 58.82 32.00 27.0 Not Reported 6.04 NW 3.36 SW 10.51 SW No 0.000 No Precipitation 03/22/2021 09:23 AM 03/22/2021 09:28 AM 0.000 0.000 0.000 0.000 0.000 Not Reported Not Reported
04/08/2021 01:40 PM 54.32 41.72 23.72 58.82 32.00 29.0 Not Reported 5.37 SW 9.40 SW 9.40 SW No 0.000 No Precipitation 03/22/2021 09:23 AM 03/22/2021 09:28 AM 0.000 0.000 0.000 0.000 0.000 Not Reported Not Reported
04/08/2021 01:45 PM 54.14 41.90 24.44 58.82 32.00 31.0 Not Reported 5.82 W 7.61 SW 10.07 SW No 0.000 No Precipitation 03/22/2021 09:23 AM 03/22/2021 09:28 AM 0.000 0.000 0.000 0.000 0.000 Not Reported Not Reported
04/08/2021 01:50 PM 55.04 42.08 23.18 58.82 32.00 28.0 Not Reported 6.49 W 7.83 NW 10.07 SW No 0.000 No Precipitation 03/22/2021 09:23 AM 03/22/2021 09:28 AM 0.000 0.000 0.000 0.000 0.000 Not Reported Not Reported
04/08/2021 01:55 PM 55.22 42.26 23.54 58.82 32.00 28.0 Not Reported 2.91 W 5.37 NW 7.83 NW No 0.000 No Precipitation 03/22/2021 09:23 AM 03/22/2021 09:28 AM 0.000 0.000 0.000 0.000 0.000 Not Reported Not Reported
04/08/2021 02:00 PM 55.04 41.90 22.64 58.82 32.00 27.0 Not Reported 2.91 W 9.17 W 9.17 W No 0.000 No Precipitation 03/22/2021 09:23 AM 03/22/2021 09:28 AM 0.000 0.000 0.000 0.000 0.000 Not Reported Not Reported
04/08/2021 02:05 PM 54.86 42.08 23.72 58.82 32.00 29.0 Not Reported 5.14 W 8.95 W 10.07 W No 0.000 No Precipitation 03/22/2021 09:23 AM 03/22/2021 09:28 AM 0.000 0.000 0.000 0.000 0.000 Not Reported Not Reported
04/08/2021 02:10 PM 55.76 42.80 24.98 58.82 32.00 30.0 Not Reported 3.80 W 2.68 N 10.07 W No 0.000 No Precipitation 03/22/2021 09:23 AM 03/22/2021 09:28 AM 0.000 0.000 0.000 0.000 0.000 Not Reported Not Reported
04/08/2021 02:15 PM 55.94 42.80 24.26 58.82 32.00 28.0 Not Reported 5.82 NW 5.59 NW 8.50 W No 0.000 No Precipitation 03/22/2021 09:23 AM 03/22/2021 09:28 AM 0.000 0.000 0.000 0.000 0.000 Not Reported Not Reported
04/08/2021 02:20 PM 56.12 42.80 23.72 58.82 32.00 28.0 Not Reported 2.68 W 4.47 N 7.38 W No 0.000 No Precipitation 03/22/2021 09:23 AM 03/22/2021 09:28 AM 0.000 0.000 0.000 0.000 0.000 Not Reported Not Reported
04/08/2021 02:25 PM 55.04 42.44 24.26 58.82 32.00 29.0 Not Reported 4.92 W 4.03 W 7.38 W No 0.000 No Precipitation 03/22/2021 09:23 AM 03/22/2021 09:28 AM 0.000 0.000 0.000 0.000 0.000 Not Reported Not Reported
04/08/2021 02:30 PM 56.84 43.52 25.52 58.82 32.00 29.0 Not Reported 7.16 W 6.93 W 8.50 W No 0.000 No Precipitation 03/22/2021 09:23 AM 03/22/2021 09:28 AM 0.000 0.000 0.000 0.000 0.000 Not Reported Not Reported
04/08/2021 02:35 PM 57.02 43.70 25.70 58.82 32.00 29.0 Not Reported 2.46 W 6.04 NW 8.50 W No 0.000 No Precipitation 03/22/2021 09:23 AM 03/22/2021 09:28 AM 0.000 0.000 0.000 0.000 0.000 Not Reported Not Reported
04/08/2021 02:40 PM 56.84 43.34 24.44 58.82 32.00 28.0 Not Reported 6.49 W 5.14 SW 7.83 SW No 0.000 No Precipitation 03/22/2021 09:23 AM 03/22/2021 09:28 AM 0.000 0.000 0.000 0.000 0.000 Not Reported Not Reported
04/08/2021 02:45 PM 56.66 43.34 24.80 58.82 32.00 28.0 Not Reported 4.25 W 6.71 W 7.83 SW No 0.000 No Precipitation 03/22/2021 09:23 AM 03/22/2021 09:28 AM 0.000 0.000 0.000 0.000 0.000 Not Reported Not Reported
04/08/2021 02:50 PM 55.94 42.80 24.08 58.82 32.00 28.0 Not Reported 6.49 NW 5.37 W 8.28 NW No 0.000 No Precipitation 03/22/2021 09:23 AM 03/22/2021 09:28 AM 0.000 0.000 0.000 0.000 0.000 Not Reported Not Reported
04/08/2021 02:55 PM 56.48 42.98 24.26 58.82 32.00 28.0 Not Reported 5.37 W 6.26 SW 8.28 NW No 0.000 No Precipitation 03/22/2021 09:23 AM 03/22/2021 09:28 AM 0.000 0.000 0.000 0.000 0.000 Not Reported Not Reported
04/08/2021 03:00 PM 56.84 43.34 24.80 58.82 32.00 28.0 Not Reported 3.58 W 7.16 W 8.28 SW No 0.000 No Precipitation 03/22/2021 09:23 AM 03/22/2021 09:28 AM 0.000 0.000 0.000 0.000 0.000 Not Reported Not Reported
04/08/2021 03:05 PM 57.20 43.34 24.26 58.82 32.00 27.0 Not Reported 3.80 NW 5.14 W 7.83 SW No 0.000 No Precipitation 03/22/2021 09:23 AM 03/22/2021 09:28 AM 0.000 0.000 0.000 0.000 0.000 Not Reported Not Reported
04/08/2021 03:10 PM 57.92 43.70 24.44 58.82 32.00 27.0 Not Reported 4.70 W 5.82 W 7.38 W No 0.000 No Precipitation 03/22/2021 09:23 AM 03/22/2021 09:28 AM 0.000 0.000 0.000 0.000 0.000 Not Reported Not Reported
04/08/2021 03:15 PM 58.28 43.88 23.72 58.82 32.00 26.0 Not Reported 3.80 W 6.49 SW 6.71 W No 0.000 No Precipitation 03/22/2021 09:23 AM 03/22/2021 09:28 AM 0.000 0.000 0.000 0.000 0.000 Not Reported Not Reported
04/08/2021 03:20 PM 57.20 43.70 25.16 58.82 32.00 28.0 Not Reported 7.16 W 7.61 NW 9.84 W No 0.000 No Precipitation 03/22/2021 09:23 AM 03/22/2021 09:28 AM 0.000 0.000 0.000 0.000 0.000 Not Reported Not Reported
04/08/2021 03:25 PM 57.38 43.52 23.90 58.82 32.00 27.0 Not Reported 4.70 NW 5.59 W 9.84 W No 0.000 No Precipitation 03/22/2021 09:23 AM 03/22/2021 09:28 AM 0.000 0.000 0.000 0.000 0.000 Not Reported Not Reported
04/08/2021 03:30 PM 56.66 43.16 24.44 58.82 32.00 28.0 Not Reported 7.61 W 4.03 NW 9.62 SW No 0.000 No Precipitation 03/22/2021 09:23 AM 03/22/2021 09:28 AM 0.000 0.000 0.000 0.000 0.000 Not Reported Not Reported
04/08/2021 03:35 PM 57.92 43.88 24.62 58.82 32.00 27.0 Not Reported 3.36 W 3.36 W 9.62 SW No 0.000 No Precipitation 03/22/2021 09:23 AM 03/22/2021 09:28 AM 0.000 0.000 0.000 0.000 0.000 Not Reported Not Reported
04/08/2021 03:40 PM 58.10 43.70 23.90 58.82 32.00 26.0 Not Reported 7.83 W 7.83 W 9.84 NW No 0.000 No Precipitation 03/22/2021 09:23 AM 03/22/2021 09:28 AM 0.000 0.000 0.000 0.000 0.000 Not Reported Not Reported
04/08/2021 03:45 PM 58.28 43.88 23.54 58.82 32.00 25.0 Not Reported 1.79 W 0.89 SW 9.84 NW No 0.000 No Precipitation 03/22/2021 09:23 AM 03/22/2021 09:28 AM 0.000 0.000 0.000 0.000 0.000 Not Reported Not Reported
04/08/2021 03:50 PM 57.20 43.70 25.34 58.82 32.00 28.0 Not Reported 4.70 W 4.92 W 6.04 W No 0.000 No Precipitation 03/22/2021 09:23 AM 03/22/2021 09:28 AM 0.000 0.000 0.000 0.000 0.000 Not Reported Not Reported
04/08/2021 03:55 PM 57.20 43.52 24.80 58.82 32.00 28.0 Not Reported 6.26 W 5.37 W 8.05 W No 0.000 No Precipitation 03/22/2021 09:23 AM 03/22/2021 09:28 AM 0.000 0.000 0.000 0.000 0.000 Not Reported Not Reported
04/08/2021 04:00 PM 58.46 44.06 24.26 58.82 32.00 26.0 Not Reported 4.47 W 4.25 NW 8.28 W No 0.000 No Precipitation 03/22/2021 09:23 AM 03/22/2021 09:28 AM 0.000 0.000 0.000 0.000 0.000 Not Reported Not Reported
04/08/2021 04:05 PM 58.82 44.24 24.44 59.00 32.00 26.0 Not Reported 3.36 NW 4.03 W 8.28 W No 0.000 No Precipitation 03/22/2021 09:23 AM 03/22/2021 09:28 AM 0.000 0.000 0.000 0.000 0.000 Not Reported Not Reported
04/08/2021 04:10 PM 58.10 43.88 24.44 59.00 32.00 27.0 Not Reported 5.59 W 5.14 W 7.38 W No 0.000 No Precipitation 03/22/2021 09:23 AM 03/22/2021 09:28 AM 0.000 0.000 0.000 0.000 0.000 Not Reported Not Reported
04/08/2021 04:15 PM 58.10 43.88 24.44 59.00 32.00 26.0 Not Reported 4.47 W 7.61 W 8.05 W No 0.000 No Precipitation 03/22/2021 09:23 AM 03/22/2021 09:28 AM 0.000 0.000 0.000 0.000 0.000 Not Reported Not Reported
04/08/2021 04:20 PM 57.74 43.88 25.52 59.00 32.00 28.0 Not Reported 3.36 SW 2.46 W 8.05 W No 0.000 No Precipitation 03/22/2021 09:23 AM 03/22/2021 09:28 AM 0.000 0.000 0.000 0.000 0.000 Not Reported Not Reported
04/08/2021 04:25 PM 57.56 43.70 25.16 59.00 32.00 28.0 Not Reported 6.93 W 2.46 W 9.17 W No 0.000 No Precipitation 03/22/2021 09:23 AM 03/22/2021 09:28 AM 0.000 0.000 0.000 0.000 0.000 Not Reported Not Reported
04/08/2021 04:30 PM 57.02 43.34 24.62 59.00 32.00 28.0 Not Reported 4.70 S 1.34 W 9.17 W No 0.000 No Precipitation 03/22/2021 09:23 AM 03/22/2021 09:28 AM 0.000 0.000 0.000 0.000 0.000 Not Reported Not Reported
04/08/2021 04:35 PM 58.46 44.06 24.62 59.00 32.00 26.0 Not Reported 3.58 W 9.40 W 9.40 W No 0.000 No Precipitation 03/22/2021 09:23 AM 03/22/2021 09:28 AM 0.000 0.000 0.000 0.000 0.000 Not Reported Not Reported
04/08/2021 04:40 PM 57.56 43.70 24.44 59.00 32.00 27.0 Not Reported 2.68 W 2.91 W 9.40 W No 0.000 No Precipitation 03/22/2021 09:23 AM 03/22/2021 09:28 AM 0.000 0.000 0.000 0.000 0.000 Not Reported Not Reported
04/08/2021 04:45 PM 57.74 43.52 23.54 59.00 32.00 26.0 Not Reported 5.82 W 3.80 W 7.61 W No 0.000 No Precipitation 03/22/2021 09:23 AM 03/22/2021 09:28 AM 0.000 0.000 0.000 0.000 0.000 Not Reported Not Reported
04/08/2021 04:50 PM 57.74 43.34 23.18 59.00 32.00 25.0 Not Reported 2.24 NW 0.89 S 7.61 W No 0.000 No Precipitation 03/22/2021 09:23 AM 03/22/2021 09:28 AM 0.000 0.000 0.000 0.000 0.000 Not Reported Not Reported
04/08/2021 04:55 PM 58.28 44.06 24.44 59.00 32.00 26.0 Not Reported 1.79 SW 2.68 N 6.93 SW No 0.000 No Precipitation 03/22/2021 09:23 AM 03/22/2021 09:28 AM 0.000 0.000 0.000 0.000 0.000 Not Reported Not Reported
04/08/2021 05:00 PM 58.82 44.06 23.54 59.00 32.00 25.0 Not Reported 1.12 W 2.24 SW 3.80 N No 0.000 No Precipitation 03/22/2021 09:23 AM 03/22/2021 09:28 AM 0.000 0.000 0.000 0.000 0.000 Not Reported Not Reported
04/08/2021 05:05 PM 59.54 44.78 25.16 59.54 32.00 26.0 Not Reported 2.91 NW 3.58 NW 4.70 N No 0.000 No Precipitation 03/22/2021 09:23 AM 03/22/2021 09:28 AM 0.000 0.000 0.000 0.000 0.000 Not Reported Not Reported
04/08/2021 05:10 PM 59.54 44.42 23.54 59.54 32.00 24.0 Not Reported 1.57 W 5.14 NW 5.14 NW No 0.000 No Precipitation 03/22/2021 09:23 AM 03/22/2021 09:28 AM 0.000 0.000 0.000 0.000 0.000 Not Reported Not Reported
04/08/2021 05:15 PM 58.64 43.88 23.54 59.54 32.00 25.0 Not Reported 5.82 W 3.80 SW 6.49 W No 0.000 No Precipitation 03/22/2021 09:23 AM 03/22/2021 09:28 AM 0.000 0.000 0.000 0.000 0.000 Not Reported Not Reported
04/08/2021 05:20 PM 58.28 43.88 23.90 59.54 32.00 26.0 Not Reported 5.14 W 4.92 W 8.05 W No 0.000 No Precipitation 03/22/2021 09:23 AM 03/22/2021 09:28 AM 0.000 0.000 0.000 0.000 0.000 Not Reported Not Reported
04/08/2021 05:25 PM 58.10 43.52 22.82 59.54 32.00 25.0 Not Reported 4.70 W 4.70 W 8.05 W No 0.000 No Precipitation 03/22/2021 09:23 AM 03/22/2021 09:28 AM 0.000 0.000 0.000 0.000 0.000 Not Reported Not Reported
04/08/2021 05:30 PM 58.46 43.70 23.18 59.54 32.00 25.0 Not Reported 2.46 NW 2.24 NW 6.93 W No 0.000 No Precipitation 03/22/2021 09:23 AM 03/22/2021 09:28 AM 0.000 0.000 0.000 0.000 0.000 Not Reported Not Reported
04/08/2021 05:35 PM 58.64 44.42 25.16 59.54 32.00 27.0 Not Reported 2.01 W 2.24 W 4.47 NW No 0.000 No Precipitation 03/22/2021 09:23 AM 03/22/2021 09:28 AM 0.000 0.000 0.000 0.000 0.000 Not Reported Not Reported
04/08/2021 05:40 PM 59.00 44.06 23.36 59.54 32.00 24.0 Not Reported 2.68 SW 5.37 W 5.37 W No 0.000 No Precipitation 03/22/2021 09:23 AM 03/22/2021 09:28 AM 0.000 0.000 0.000 0.000 0.000 Not Reported Not Reported
04/08/2021 05:45 PM 58.28 44.24 25.70 59.54 32.00 28.0 Not Reported 2.68 SW 3.58 W 5.37 W No 0.000 No Precipitation 03/22/2021 09:23 AM 03/22/2021 09:28 AM 0.000 0.000 0.000 0.000 0.000 Not Reported Not Reported
04/08/2021 05:50 PM 57.74 43.88 25.16 59.54 32.00 28.0 Not Reported 2.91 W 1.57 SW 6.26 W No 0.000 No Precipitation 03/22/2021 09:23 AM 03/22/2021 09:28 AM 0.000 0.000 0.000 0.000 0.000 Not Reported Not Reported
04/08/2021 05:55 PM 58.10 43.52 23.00 59.54 32.00 25.0 Not Reported 4.03 W 2.68 W 6.26 W No 0.000 No Precipitation 03/22/2021 09:23 AM 03/22/2021 09:28 AM 0.000 0.000 0.000 0.000 0.000 Not Reported Not Reported
04/08/2021 06:00 PM 57.56 43.52 23.90 59.54 32.00 26.0 Not Reported 3.58 NW 2.46 NW 4.70 W No 0.000 No Precipitation 03/22/2021 09:23 AM 03/22/2021 09:28 AM 0.000 0.000 0.000 0.000 0.000 Not Reported Not Reported
04/08/2021 06:05 PM 57.20 44.06 26.42 59.54 32.00 30.0 Not Reported 2.46 SW 2.46 SW 3.80 NW No 0.000 No Precipitation 03/22/2021 09:23 AM 03/22/2021 09:28 AM 0.000 0.000 0.000 0.000 0.000 Not Reported Not Reported
04/08/2021 06:10 PM 56.84 42.98 23.54 59.54 32.00 27.0 Not Reported 3.36 W 2.68 NW 4.25 W No 0.000 No Precipitation 03/22/2021 09:23 AM 03/22/2021 09:28 AM 0.000 0.000 0.000 0.000 0.000 Not Reported Not Reported
04/08/2021 06:15 PM 57.20 43.52 24.80 59.54 32.00 28.0 Not Reported 3.36 W 0.45 NW 5.14 SW No 0.000 No Precipitation 03/22/2021 09:23 AM 03/22/2021 09:28 AM 0.000 0.000 0.000 0.000 0.000 Not Reported Not Reported
04/08/2021 06:20 PM 57.20 42.98 22.64 59.54 32.00 25.0 Not Reported 3.58 NW 2.91 NW 5.14 SW No 0.000 No Precipitation 03/22/2021 09:23 AM 03/22/2021 09:28 AM 0.000 0.000 0.000 0.000 0.000 Not Reported Not Reported
04/08/2021 06:25 PM 57.38 43.88 25.70 59.54 32.00 29.0 Not Reported 2.68 W 3.36 SW 4.92 NW No 0.000 No Precipitation 03/22/2021 09:23 AM 03/22/2021 09:28 AM 0.000 0.000 0.000 0.000 0.000 Not Reported Not Reported
04/08/2021 06:30 PM 57.74 43.52 23.54 59.54 32.00 26.0 Not Reported 4.70 W 3.36 NW 5.14 W No 0.000 No Precipitation 03/22/2021 09:23 AM 03/22/2021 09:28 AM 0.000 0.000 0.000 0.000 0.000 Not Reported Not Reported
04/08/2021 06:35 PM 56.12 43.52 26.60 59.54 32.00 31.0 Not Reported 1.34 W 1.34 W 5.14 W No 0.000 No Precipitation 03/22/2021 09:23 AM 03/22/2021 09:28 AM 0.000 0.000 0.000 0.000 0.000 Not Reported Not Reported
04/08/2021 06:40 PM 56.12 42.62 23.18 59.54 32.00 27.0 Not Reported 3.58 W 3.58 W 4.25 W No 0.000 No Precipitation 03/22/2021 09:23 AM 03/22/2021 09:28 AM 0.000 0.000 0.000 0.000 0.000 Not Reported Not Reported
04/08/2021 06:45 PM 55.04 42.62 25.34 59.54 32.00 31.0 Not Reported 2.91 W 4.25 SW 4.25 W No 0.000 No Precipitation 03/22/2021 09:23 AM 03/22/2021 09:28 AM 0.000 0.000 0.000 0.000 0.000 Not Reported Not Reported
04/08/2021 06:50 PM 54.32 42.44 26.42 59.54 32.00 33.0 Not Reported 3.13 SW 2.68 W 4.25 SW No 0.000 No Precipitation 03/22/2021 09:23 AM 03/22/2021 09:28 AM 0.000 0.000 0.000 0.000 0.000 Not Reported Not Reported
04/08/2021 06:55 PM 53.60 42.44 27.50 59.54 32.00 37.0 Not Reported 1.34 W 1.34 W 3.80 SW No 0.000 No Precipitation 03/22/2021 09:23 AM 03/22/2021 09:28 AM 0.000 0.000 0.000 0.000 0.000 Not Reported Not Reported
04/08/2021 07:00 PM 52.34 42.26 29.12 59.54 32.00 40.0 Not Reported 1.12 NW 1.34 NW 3.36 W No 0.000 No Precipitation 03/22/2021 09:23 AM 03/22/2021 09:28 AM 0.000 0.000 0.000 0.000 0.000 Not Reported Not Reported
04/08/2021 07:05 PM 51.62 41.90 29.30 59.54 32.00 41.0 Not Reported 0.67 W 0.00 W 2.24 W No 0.000 No Precipitation 03/22/2021 09:23 AM 03/22/2021 09:28 AM 0.000 0.000 0.000 0.000 0.000 Not Reported Not Reported
04/08/2021 07:15 PM 50.36 42.08 31.46 59.54 32.00 47.0 Not Reported 0.67 W 0.89 W 0.89 W No 0.000 No Precipitation 03/22/2021 09:23 AM 03/22/2021 09:28 AM 0.000 0.000 0.000 0.000 0.000 Not Reported Not Reported
04/08/2021 07:20 PM 49.82 41.90 31.82 59.54 32.00 49.0 Not Reported 1.34 W 1.12 W 1.57 W No 0.000 No Precipitation 03/22/2021 09:23 AM 03/22/2021 09:28 AM 0.000 0.000 0.000 0.000 0.000 Not Reported Not Reported
04/08/2021 07:25 PM 49.46 41.90 32.18 59.54 32.00 51.0 Not Reported 0.45 W 0.89 W 1.57 W No 0.000 No Precipitation 03/22/2021 09:23 AM 03/22/2021 09:28 AM 0.000 0.000 0.000 0.000 0.000 Not Reported Not Reported
04/08/2021 07:30 PM 49.10 41.90 32.90 59.54 32.00 53.0 Not Reported 0.67 NW 0.67 W 1.12 W No 0.000 No Precipitation 03/22/2021 09:23 AM 03/22/2021 09:28 AM 0.000 0.000 0.000 0.000 0.000 Not Reported Not Reported
04/08/2021 07:35 PM 48.38 41.54 32.90 59.54 32.00 54.0 Not Reported 0.89 NW 0.67 NW 1.34 NW No 0.000 No Precipitation 03/22/2021 09:23 AM 03/22/2021 09:28 AM 0.000 0.000 0.000 0.000 0.000 Not Reported Not Reported
04/08/2021 07:40 PM 47.66 41.00 32.54 59.54 32.00 55.0 Not Reported 1.12 NW 1.34 W 1.34 NW No 0.000 No Precipitation 03/22/2021 09:23 AM 03/22/2021 09:28 AM 0.000 0.000 0.000 0.000 0.000 Not Reported Not Reported
04/08/2021 07:45 PM 46.94 40.64 32.36 59.54 32.00 56.0 Not Reported 0.89 W 1.34 NW 1.34 NW No 0.000 No Precipitation 03/22/2021 09:23 AM 03/22/2021 09:28 AM 0.000 0.000 0.000 0.000 0.000 Not Reported Not Reported
04/08/2021 07:50 PM 46.40 40.28 32.36 59.54 32.00 58.0 Not Reported 0.89 W 1.12 NW 1.34 NW No 0.000 No Precipitation 03/22/2021 09:23 AM 03/22/2021 09:28 AM 0.000 0.000 0.000 0.000 0.000 Not Reported Not Reported
04/08/2021 07:55 PM 45.68 39.92 32.36 59.54 32.00 59.0 Not Reported 0.89 W 1.34 W 1.57 NW No 0.000 No Precipitation 03/22/2021 09:23 AM 03/22/2021 09:28 AM 0.000 0.000 0.000 0.000 0.000 Not Reported Not Reported
04/08/2021 08:00 PM 45.32 39.74 32.36 59.54 32.00 60.0 Not Reported 1.12 W 1.34 W 1.57 NW No 0.000 No Precipitation 03/22/2021 09:23 AM 03/22/2021 09:28 AM 0.000 0.000 0.000 0.000 0.000 Not Reported Not Reported
04/08/2021 08:05 PM 44.96 39.38 32.18 59.54 32.00 60.0 Not Reported 1.34 W 1.79 W 1.79 W No 0.000 No Precipitation 03/22/2021 09:23 AM 03/22/2021 09:28 AM 0.000 0.000 0.000 0.000 0.000 Not Reported Not Reported
04/08/2021 08:10 PM 44.42 39.20 32.54 59.54 32.00 62.0 Not Reported 1.79 W 2.01 W 2.24 W No 0.000 No Precipitation 03/22/2021 09:23 AM 03/22/2021 09:28 AM 0.000 0.000 0.000 0.000 0.000 Not Reported Not Reported
04/08/2021 08:15 PM 43.88 38.84 32.00 59.54 32.00 62.0 Not Reported 1.79 NW 1.12 W 2.24 W No 0.000 No Precipitation 03/22/2021 09:23 AM 03/22/2021 09:28 AM 0.000 0.000 0.000 0.000 0.000 Not Reported Not Reported
04/08/2021 08:20 PM 43.34 38.30 31.82 59.54 32.00 63.0 Not Reported 1.79 W 2.01 W 2.01 NW No 0.000 No Precipitation 03/22/2021 09:23 AM 03/22/2021 09:28 AM 0.000 0.000 0.000 0.000 0.000 Not Reported Not Reported
04/08/2021 08:25 PM 43.16 38.30 31.82 59.54 32.00 63.0 Not Reported 1.57 W 1.34 W 2.01 W No 0.000 No Precipitation 03/22/2021 09:23 AM 03/22/2021 09:28 AM 0.000 0.000 0.000 0.000 0.000 Not Reported Not Reported
04/08/2021 08:30 PM 42.98 37.94 31.28 59.54 32.00 62.0 Not Reported 1.34 W 1.57 W 1.79 W No 0.000 No Precipitation 03/22/2021 09:23 AM 03/22/2021 09:28 AM 0.000 0.000 0.000 0.000 0.000 Not Reported Not Reported
04/08/2021 08:35 PM 42.62 37.58 30.92 59.54 32.00 62.0 Not Reported 1.57 W 1.79 W 1.79 W No 0.000 No Precipitation 03/22/2021 09:23 AM 03/22/2021 09:28 AM 0.000 0.000 0.000 0.000 0.000 Not Reported Not Reported
04/08/2021 08:40 PM 42.08 37.22 30.74 59.54 32.00 63.0 Not Reported 1.79 W 1.57 W 1.79 W No 0.000 No Precipitation 03/22/2021 09:23 AM 03/22/2021 09:28 AM 0.000 0.000 0.000 0.000 0.000 Not Reported Not Reported
04/08/2021 08:45 PM 41.90 37.22 30.92 59.54 32.00 64.0 Not Reported 1.57 W 1.57 W 1.79 W No 0.000 No Precipitation 03/22/2021 09:23 AM 03/22/2021 09:28 AM 0.000 0.000 0.000 0.000 0.000 Not Reported Not Reported
04/08/2021 08:50 PM 41.72 37.04 30.56 59.54 32.00 64.0 Not Reported 1.79 W 2.01 W 2.01 W No 0.000 No Precipitation 03/22/2021 09:23 AM 03/22/2021 09:28 AM 0.000 0.000 0.000 0.000 0.000 Not Reported Not Reported
04/08/2021 08:55 PM 41.18 36.86 30.74 59.54 32.00 65.0 Not Reported 2.24 W 1.79 W 2.24 W No 0.000 No Precipitation 03/22/2021 09:23 AM 03/22/2021 09:28 AM 0.000 0.000 0.000 0.000 0.000 Not Reported Not Reported
04/08/2021 09:00 PM 40.82 36.50 30.56 59.54 32.00 66.0 Not Reported 1.57 W 1.57 W 2.24 W No 0.000 No Precipitation 03/22/2021 09:23 AM 03/22/2021 09:28 AM 0.000 0.000 0.000 0.000 0.000 Not Reported Not Reported
04/08/2021 09:05 PM 40.64 36.32 30.38 59.54 32.00 65.0 Not Reported 1.79 W 2.01 W 2.01 W No 0.000 No Precipitation 03/22/2021 09:23 AM 03/22/2021 09:28 AM 0.000 0.000 0.000 0.000 0.000 Not Reported Not Reported
04/08/2021 09:10 PM 40.46 36.14 30.20 59.54 32.00 66.0 Not Reported 2.01 W 2.01 W 2.24 W No 0.000 No Precipitation 03/22/2021 09:23 AM 03/22/2021 09:28 AM 0.000 0.000 0.000 0.000 0.000 Not Reported Not Reported
04/08/2021 09:15 PM 40.28 35.96 30.02 59.54 32.00 66.0 Not Reported 2.24 W 2.24 W 2.46 W No 0.000 No Precipitation 03/22/2021 09:23 AM 03/22/2021 09:28 AM 0.000 0.000 0.000 0.000 0.000 Not Reported Not Reported
04/08/2021 09:20 PM 40.10 36.14 30.38 59.54 32.00 67.0 Not Reported 2.01 W 2.01 W 2.46 W No 0.000 No Precipitation 03/22/2021 09:23 AM 03/22/2021 09:28 AM 0.000 0.000 0.000 0.000 0.000 Not Reported Not Reported
04/08/2021 09:25 PM 39.92 35.96 30.38 59.54 32.00 68.0 Not Reported 2.01 W 1.79 W 2.46 W No 0.000 No Precipitation 03/22/2021 09:23 AM 03/22/2021 09:28 AM 0.000 0.000 0.000 0.000 0.000 Not Reported Not Reported
04/08/2021 09:30 PM 39.56 35.60 30.20 59.54 32.00 68.0 Not Reported 2.24 W 2.24 W 2.46 W No 0.000 No Precipitation 03/22/2021 09:23 AM 03/22/2021 09:28 AM 0.000 0.000 0.000 0.000 0.000 Not Reported Not Reported
04/08/2021 09:35 PM 39.20 35.42 30.02 59.54 32.00 69.0 Not Reported 2.24 W 2.24 W 2.46 W No 0.000 No Precipitation 03/22/2021 09:23 AM 03/22/2021 09:28 AM 0.000 0.000 0.000 0.000 0.000 Not Reported Not Reported
04/08/2021 09:40 PM 39.02 35.42 30.02 59.54 32.00 69.0 Not Reported 2.24 W 2.24 W 2.46 W No 0.000 No Precipitation 03/22/2021 09:23 AM 03/22/2021 09:28 AM 0.000 0.000 0.000 0.000 0.000 Not Reported Not Reported
04/08/2021 09:45 PM 39.02 35.24 29.84 59.54 32.00 68.0 Not Reported 2.01 W 2.01 W 2.46 W No 0.000 No Precipitation 03/22/2021 09:23 AM 03/22/2021 09:28 AM 0.000 0.000 0.000 0.000 0.000 Not Reported Not Reported
04/08/2021 09:50 PM 38.84 35.24 29.66 59.54 32.00 68.0 Not Reported 2.01 W 2.01 W 2.24 W No 0.000 No Precipitation 03/22/2021 09:23 AM 03/22/2021 09:28 AM 0.000 0.000 0.000 0.000 0.000 Not Reported Not Reported
04/08/2021 09:55 PM 38.84 35.06 29.66 59.54 32.00 69.0 Not Reported 2.46 W 2.24 W 2.46 W No 0.000 No Precipitation 03/22/2021 09:23 AM 03/22/2021 09:28 AM 0.000 0.000 0.000 0.000 0.000 Not Reported Not Reported
04/08/2021 10:00 PM 38.84 35.06 29.84 59.54 32.00 69.0 Not Reported 1.34 W 0.00 NW 2.46 W No 0.000 No Precipitation 03/22/2021 09:23 AM 03/22/2021 09:28 AM 0.000 0.000 0.000 0.000 0.000 Not Reported Not Reported
04/08/2021 10:05 PM 39.38 35.42 29.84 59.54 32.00 68.0 Not Reported 0.67 SE 1.12 NW 2.01 W No 0.000 No Precipitation 03/22/2021 09:23 AM 03/22/2021 09:28 AM 0.000 0.000 0.000 0.000 0.000 Not Reported Not Reported
04/08/2021 10:10 PM 41.36 36.50 29.66 59.54 32.00 62.0 Not Reported 0.00 SE 0.00 SW 2.46 NW No 0.000 No Precipitation 03/22/2021 09:23 AM 03/22/2021 09:28 AM 0.000 0.000 0.000 0.000 0.000 Not Reported Not Reported
04/08/2021 10:15 PM 40.46 35.78 28.94 59.54 32.00 62.0 Not Reported 0.89 W 0.89 SW 2.46 NW No 0.000 No Precipitation 03/22/2021 09:23 AM 03/22/2021 09:28 AM 0.000 0.000 0.000 0.000 0.000 Not Reported Not Reported
04/08/2021 10:20 PM 39.92 35.60 29.12 59.54 32.00 64.0 Not Reported 0.45 W 0.00 NW 1.12 W No 0.000 No Precipitation 03/22/2021 09:23 AM 03/22/2021 09:28 AM 0.000 0.000 0.000 0.000 0.000 Not Reported Not Reported
04/08/2021 10:25 PM 39.74 35.42 29.12 59.54 32.00 65.0 Not Reported 0.22 W 0.00 NW 0.89 W No 0.000 No Precipitation 03/22/2021 09:23 AM 03/22/2021 09:28 AM 0.000 0.000 0.000 0.000 0.000 Not Reported Not Reported
04/08/2021 10:30 PM 39.38 35.24 29.12 59.54 32.00 65.0 Not Reported 0.45 W 0.00 SW 1.12 SW No 0.000 No Precipitation 03/22/2021 09:23 AM 03/22/2021 09:28 AM 0.000 0.000 0.000 0.000 0.000 Not Reported Not Reported
04/08/2021 10:35 PM 39.02 34.88 28.94 59.54 32.00 66.0 Not Reported 0.00 N 0.00 SW 1.12 SW No 0.000 No Precipitation 03/22/2021 09:23 AM 03/22/2021 09:28 AM 0.000 0.000 0.000 0.000 0.000 Not Reported Not Reported
04/08/2021 10:40 PM 39.02 34.88 28.76 59.54 32.00 65.0 Not Reported 0.00 N 0.00 SW 0.00 SW No 0.000 No Precipitation 03/22/2021 09:23 AM 03/22/2021 09:28 AM 0.000 0.000 0.000 0.000 0.000 Not Reported Not Reported
04/08/2021 10:45 PM 38.84 34.70 28.58 59.54 32.00 65.0 Not Reported 0.00 N 0.00 SW 0.22 SW No 0.000 No Precipitation 03/22/2021 09:23 AM 03/22/2021 09:28 AM 0.000 0.000 0.000 0.000 0.000 Not Reported Not Reported
04/08/2021 10:55 PM 38.66 34.52 28.22 59.54 32.00 65.0 Not Reported 0.00 N 0.00 S 0.89 NW No 0.000 No Precipitation 03/22/2021 09:23 AM 03/22/2021 09:28 AM 0.000 0.000 0.000 0.000 0.000 Not Reported Not Reported
04/08/2021 11:05 PM 38.30 33.98 27.32 59.54 32.00 63.0 Not Reported 0.00 N 0.00 S 0.89 S No 0.000 No Precipitation 03/22/2021 09:23 AM 03/22/2021 09:28 AM 0.000 0.000 0.000 0.000 0.000 Not Reported Not Reported
04/08/2021 11:10 PM 38.12 33.62 26.78 59.54 32.00 62.0 Not Reported 0.00 N 0.22 SE 0.89 S No 0.000 No Precipitation 03/22/2021 09:23 AM 03/22/2021 09:28 AM 0.000 0.000 0.000 0.000 0.000 Not Reported Not Reported
04/08/2021 11:15 PM 38.48 33.98 26.96 59.54 32.00 62.0 Not Reported 0.00 N 0.00 SE 0.89 S No 0.000 No Precipitation 03/22/2021 09:23 AM 03/22/2021 09:28 AM 0.000 0.000 0.000 0.000 0.000 Not Reported Not Reported
04/08/2021 11:20 PM 38.30 33.80 26.24 59.54 32.00 61.0 Not Reported 0.00 N 0.00 SE 0.22 S No 0.000 No Precipitation 03/22/2021 09:23 AM 03/22/2021 09:28 AM 0.000 0.000 0.000 0.000 0.000 Not Reported Not Reported
04/08/2021 11:30 PM 38.48 33.44 25.52 59.54 32.00 59.0 Not Reported 0.00 N 0.00 NE 0.45 NW No 0.000 No Precipitation 03/22/2021 09:23 AM 03/22/2021 09:28 AM 0.000 0.000 0.000 0.000 0.000 Not Reported Not Reported
04/08/2021 11:40 PM 38.48 33.44 25.52 59.54 32.00 58.0 Not Reported 0.00 N 0.00 S 0.00 E No 0.000 No Precipitation 03/22/2021 09:23 AM 03/22/2021 09:28 AM 0.000 0.000 0.000 0.000 0.000 Not Reported Not Reported
04/08/2021 11:45 PM 38.30 33.44 25.52 59.54 32.00 59.0 Not Reported 0.00 N 0.00 E 0.00 E No 0.000 No Precipitation 03/22/2021 09:23 AM 03/22/2021 09:28 AM 0.000 0.000 0.000 0.000 0.000 Not Reported Not Reported
04/08/2021 11:50 PM 38.12 33.44 25.52 59.54 32.00 59.0 Not Reported 0.00 N 0.00 E 0.00 E No 0.000 No Precipitation 03/22/2021 09:23 AM 03/22/2021 09:28 AM 0.000 0.000 0.000 0.000 0.000 Not Reported Not Reported
04/08/2021 11:55 PM 38.12 33.26 25.52 59.54 32.00 59.0 Not Reported 0.00 N 0.00 S 0.00 S No 0.000 No Precipitation 03/22/2021 09:23 AM 03/22/2021 09:28 AM 0.000 0.000 0.000 0.000 0.000 Not Reported Not Reported